sensor_id;sensor_type;location;lat;lon;timestamp;pressure;altitude;pressure_sealevel;temperature;humidity
73870;BME280;64924;42.140;24.762;2023-12-04T00:01:49;100021.38;;;8.93;58.81
73870;BME280;64924;42.140;24.762;2023-12-04T00:04:14;100038.47;;;8.93;59.16
73870;BME280;64924;42.140;24.762;2023-12-04T00:06:43;100042.50;;;9.05;58.40
73870;BME280;64924;42.140;24.762;2023-12-04T00:09:08;100042.16;;;9.00;58.64
73870;BME280;64924;42.140;24.762;2023-12-04T00:11:34;100000.78;;;8.84;58.64
73870;BME280;64924;42.140;24.762;2023-12-04T00:14:00;100052.63;;;9.12;58.31
73870;BME280;64924;42.140;24.762;2023-12-04T00:16:26;100044.38;;;8.97;58.30
73870;BME280;64924;42.140;24.762;2023-12-04T00:18:51;100015.19;;;8.76;58.48
73870;BME280;64924;42.140;24.762;2023-12-04T00:21:17;100070.78;;;9.03;57.99
73870;BME280;64924;42.140;24.762;2023-12-04T00:23:42;100074.53;;;8.94;57.98
73870;BME280;64924;42.140;24.762;2023-12-04T00:26:08;100076.28;;;8.87;58.07
73870;BME280;64924;42.140;24.762;2023-12-04T00:28:37;100071.88;;;8.86;58.16
73870;BME280;64924;42.140;24.762;2023-12-04T00:31:02;100078.00;;;8.71;57.55
73870;BME280;64924;42.140;24.762;2023-12-04T00:33:28;100099.34;;;8.66;57.69
73870;BME280;64924;42.140;24.762;2023-12-04T00:35:53;100106.81;;;8.56;58.13
73870;BME280;64924;42.140;24.762;2023-12-04T00:38:19;100123.94;;;8.41;57.09
73870;BME280;64924;42.140;24.762;2023-12-04T00:40:44;100122.09;;;8.41;57.93
73870;BME280;64924;42.140;24.762;2023-12-04T00:43:10;100102.78;;;8.44;57.68
73870;BME280;64924;42.140;24.762;2023-12-04T00:45:35;100100.75;;;8.46;57.42
73870;BME280;64924;42.140;24.762;2023-12-04T00:48:02;100089.59;;;8.33;57.66
73870;BME280;64924;42.140;24.762;2023-12-04T00:50:27;100093.63;;;8.29;58.04
73870;BME280;64924;42.140;24.762;2023-12-04T00:52:53;100082.81;;;8.29;57.33
73870;BME280;64924;42.140;24.762;2023-12-04T00:55:19;100092.44;;;8.31;56.83
73870;BME280;64924;42.140;24.762;2023-12-04T00:57:45;100094.66;;;8.28;56.99
73870;BME280;64924;42.140;24.762;2023-12-04T01:00:11;100089.75;;;8.31;56.94
73870;BME280;64924;42.140;24.762;2023-12-04T01:02:37;100111.94;;;8.43;56.83
73870;BME280;64924;42.140;24.762;2023-12-04T01:05:02;100110.41;;;8.41;56.56
73870;BME280;64924;42.140;24.762;2023-12-04T01:07:28;100105.16;;;8.39;56.74
73870;BME280;64924;42.140;24.762;2023-12-04T01:09:54;100113.59;;;8.28;56.00
73870;BME280;64924;42.140;24.762;2023-12-04T01:12:20;100121.88;;;8.26;55.71
73870;BME280;64924;42.140;24.762;2023-12-04T01:14:46;100074.19;;;7.93;55.56
73870;BME280;64924;42.140;24.762;2023-12-04T01:17:12;100118.16;;;8.19;55.55
73870;BME280;64924;42.140;24.762;2023-12-04T01:19:37;100119.84;;;8.20;55.42
73870;BME280;64924;42.140;24.762;2023-12-04T01:22:03;100127.81;;;8.30;55.53
73870;BME280;64924;42.140;24.762;2023-12-04T01:24:29;100130.34;;;8.31;55.88
73870;BME280;64924;42.140;24.762;2023-12-04T01:26:54;100121.53;;;8.29;55.49
73870;BME280;64924;42.140;24.762;2023-12-04T01:29:20;100123.56;;;8.27;55.53
73870;BME280;64924;42.140;24.762;2023-12-04T01:31:45;100074.88;;;8.03;54.94
73870;BME280;64924;42.140;24.762;2023-12-04T01:34:10;100082.47;;;7.99;54.73
73870;BME280;64924;42.140;24.762;2023-12-04T01:36:40;100117.84;;;8.14;54.54
73870;BME280;64924;42.140;24.762;2023-12-04T01:39:06;100139.66;;;8.13;54.27
73870;BME280;64924;42.140;24.762;2023-12-04T01:41:31;100128.66;;;8.06;54.86
73870;BME280;64924;42.140;24.762;2023-12-04T01:43:57;100135.59;;;8.17;54.64
73870;BME280;64924;42.140;24.762;2023-12-04T01:46:22;100121.88;;;8.18;54.95
73870;BME280;64924;42.140;24.762;2023-12-04T01:48:48;100134.75;;;8.24;54.15
73870;BME280;64924;42.140;24.762;2023-12-04T01:51:14;100133.56;;;8.27;54.23
73870;BME280;64924;42.140;24.762;2023-12-04T01:53:42;100133.88;;;8.24;54.60
73870;BME280;64924;42.140;24.762;2023-12-04T01:56:08;100132.53;;;8.20;54.47
73870;BME280;64924;42.140;24.762;2023-12-04T01:58:35;100143.53;;;8.26;54.33
73870;BME280;64924;42.140;24.762;2023-12-04T02:01:00;100142.03;;;8.16;54.06
73870;BME280;64924;42.140;24.762;2023-12-04T02:03:27;100142.69;;;8.10;53.92
73870;BME280;64924;42.140;24.762;2023-12-04T02:05:53;100137.78;;;8.05;54.61
73870;BME280;64924;42.140;24.762;2023-12-04T02:08:20;100141.84;;;8.01;54.28
73870;BME280;64924;42.140;24.762;2023-12-04T02:10:45;100143.03;;;8.07;53.93
73870;BME280;64924;42.140;24.762;2023-12-04T02:13:11;100121.53;;;7.89;53.73
73870;BME280;64924;42.140;24.762;2023-12-04T02:15:37;100148.44;;;8.07;53.01
73870;BME280;64924;42.140;24.762;2023-12-04T02:18:03;100145.03;;;7.88;53.73
73870;BME280;64924;42.140;24.762;2023-12-04T02:20:35;100154.03;;;8.05;53.41
73870;BME280;64924;42.140;24.762;2023-12-04T02:23:01;100157.06;;;8.02;53.60
73870;BME280;64924;42.140;24.762;2023-12-04T02:25:28;100161.97;;;7.98;53.35
73870;BME280;64924;42.140;24.762;2023-12-04T02:27:56;100178.22;;;8.07;52.89
73870;BME280;64924;42.140;24.762;2023-12-04T02:30:24;100183.78;;;8.05;52.75
73870;BME280;64924;42.140;24.762;2023-12-04T02:32:50;100159.22;;;7.82;51.34
73870;BME280;64924;42.140;24.762;2023-12-04T02:35:21;100194.25;;;7.92;51.18
73870;BME280;64924;42.140;24.762;2023-12-04T02:37:49;100184.06;;;7.86;52.13
73870;BME280;64924;42.140;24.762;2023-12-04T02:40:15;100167.50;;;7.81;51.82
73870;BME280;64924;42.140;24.762;2023-12-04T02:42:41;100200.13;;;7.87;51.66
73870;BME280;64924;42.140;24.762;2023-12-04T02:45:07;100201.81;;;7.80;51.20
73870;BME280;64924;42.140;24.762;2023-12-04T02:47:32;100186.25;;;7.82;50.84
73870;BME280;64924;42.140;24.762;2023-12-04T02:49:58;100192.69;;;7.81;51.71
73870;BME280;64924;42.140;24.762;2023-12-04T02:52:23;100186.78;;;7.86;51.19
73870;BME280;64924;42.140;24.762;2023-12-04T02:54:49;100161.06;;;7.82;51.02
73870;BME280;64924;42.140;24.762;2023-12-04T02:57:14;100173.44;;;7.76;51.10
73870;BME280;64924;42.140;24.762;2023-12-04T02:59:40;100194.56;;;7.89;51.03
73870;BME280;64924;42.140;24.762;2023-12-04T03:02:05;100182.88;;;7.80;50.69
73870;BME280;64924;42.140;24.762;2023-12-04T03:04:31;100186.25;;;7.74;50.10
73870;BME280;64924;42.140;24.762;2023-12-04T03:06:57;100192.69;;;7.73;50.36
73870;BME280;64924;42.140;24.762;2023-12-04T03:09:22;100208.75;;;7.75;50.68
73870;BME280;64924;42.140;24.762;2023-12-04T03:11:48;100176.03;;;7.52;50.31
73870;BME280;64924;42.140;24.762;2023-12-04T03:14:13;100175.16;;;7.43;49.76
73870;BME280;64924;42.140;24.762;2023-12-04T03:16:39;100167.84;;;7.27;49.84
73870;BME280;64924;42.140;24.762;2023-12-04T03:19:05;100192.91;;;7.37;50.42
73870;BME280;64924;42.140;24.762;2023-12-04T03:21:31;100224.38;;;7.55;50.16
73870;BME280;64924;42.140;24.762;2023-12-04T03:23:56;100233.53;;;7.62;50.07
73870;BME280;64924;42.140;24.762;2023-12-04T03:26:21;100237.84;;;7.47;49.77
73870;BME280;64924;42.140;24.762;2023-12-04T03:28:47;100242.56;;;7.36;50.55
73870;BME280;64924;42.140;24.762;2023-12-04T03:31:12;100238.47;;;7.32;50.30
73870;BME280;64924;42.140;24.762;2023-12-04T03:33:38;100240.34;;;7.32;50.28
73870;BME280;64924;42.140;24.762;2023-12-04T03:36:04;100249.66;;;7.37;50.01
73870;BME280;64924;42.140;24.762;2023-12-04T03:38:29;100202.69;;;7.04;49.89
73870;BME280;64924;42.140;24.762;2023-12-04T03:40:55;100248.97;;;7.35;50.16
73870;BME280;64924;42.140;24.762;2023-12-04T03:43:20;100253.53;;;7.43;49.84
73870;BME280;64924;42.140;24.762;2023-12-04T03:45:46;100244.09;;;7.47;49.64
73870;BME280;64924;42.140;24.762;2023-12-04T03:48:11;100246.66;;;7.49;49.14
73870;BME280;64924;42.140;24.762;2023-12-04T03:50:37;100250.38;;;7.48;48.73
73870;BME280;64924;42.140;24.762;2023-12-04T03:53:02;100230.91;;;7.36;49.09
73870;BME280;64924;42.140;24.762;2023-12-04T03:55:28;100251.53;;;7.45;48.95
73870;BME280;64924;42.140;24.762;2023-12-04T03:57:54;100263.66;;;7.33;48.65
73870;BME280;64924;42.140;24.762;2023-12-04T04:00:21;100221.38;;;6.98;48.35
73870;BME280;64924;42.140;24.762;2023-12-04T04:02:48;100250.19;;;7.15;48.56
73870;BME280;64924;42.140;24.762;2023-12-04T04:05:13;100202.75;;;6.87;48.51
73870;BME280;64924;42.140;24.762;2023-12-04T04:07:40;100243.78;;;7.16;47.78
73870;BME280;64924;42.140;24.762;2023-12-04T04:10:06;100257.50;;;7.23;48.25
73870;BME280;64924;42.140;24.762;2023-12-04T04:12:32;100264.06;;;7.20;47.76
73870;BME280;64924;42.140;24.762;2023-12-04T04:14:58;100256.66;;;7.22;48.11
73870;BME280;64924;42.140;24.762;2023-12-04T04:17:23;100271.22;;;7.29;47.81
73870;BME280;64924;42.140;24.762;2023-12-04T04:19:51;100268.31;;;7.23;48.06
73870;BME280;64924;42.140;24.762;2023-12-04T04:22:17;100280.28;;;7.20;48.33
73870;BME280;64924;42.140;24.762;2023-12-04T04:24:43;100272.88;;;7.22;48.20
73870;BME280;64924;42.140;24.762;2023-12-04T04:27:08;100287.75;;;7.26;47.84
73870;BME280;64924;42.140;24.762;2023-12-04T04:29:34;100294.88;;;7.27;48.14
73870;BME280;64924;42.140;24.762;2023-12-04T04:31:59;100292.16;;;7.27;48.16
73870;BME280;64924;42.140;24.762;2023-12-04T04:34:25;100291.16;;;7.28;47.75
73870;BME280;64924;42.140;24.762;2023-12-04T04:36:50;100290.78;;;7.23;46.65
73870;BME280;64924;42.140;24.762;2023-12-04T04:39:16;100244.41;;;6.84;47.65
73870;BME280;64924;42.140;24.762;2023-12-04T04:41:41;100288.97;;;7.06;47.22
73870;BME280;64924;42.140;24.762;2023-12-04T04:44:07;100251.22;;;6.70;47.41
73870;BME280;64924;42.140;24.762;2023-12-04T04:46:33;100323.41;;;7.04;48.80
73870;BME280;64924;42.140;24.762;2023-12-04T04:48:58;100305.94;;;7.16;48.11
73870;BME280;64924;42.140;24.762;2023-12-04T04:51:23;100302.91;;;7.19;47.83
73870;BME280;64924;42.140;24.762;2023-12-04T04:53:49;100304.44;;;7.22;47.48
73870;BME280;64924;42.140;24.762;2023-12-04T04:56:15;100309.16;;;7.20;47.09
73870;BME280;64924;42.140;24.762;2023-12-04T04:58:40;100302.69;;;7.13;47.15
73870;BME280;64924;42.140;24.762;2023-12-04T05:01:06;100319.44;;;7.16;47.26
73870;BME280;64924;42.140;24.762;2023-12-04T05:03:32;100321.59;;;7.13;46.55
73870;BME280;64924;42.140;24.762;2023-12-04T05:05:57;100267.88;;;6.84;47.29
73870;BME280;64924;42.140;24.762;2023-12-04T05:08:23;100324.78;;;7.08;47.62
73870;BME280;64924;42.140;24.762;2023-12-04T05:10:48;100340.66;;;7.11;47.48
73870;BME280;64924;42.140;24.762;2023-12-04T05:13:14;100337.28;;;7.09;47.52
73870;BME280;64924;42.140;24.762;2023-12-04T05:15:39;100309.06;;;6.86;47.45
73870;BME280;64924;42.140;24.762;2023-12-04T05:18:05;100344.50;;;7.00;46.80
73870;BME280;64924;42.140;24.762;2023-12-04T05:20:30;100326.28;;;6.85;47.09
73870;BME280;64924;42.140;24.762;2023-12-04T05:22:57;100357.84;;;7.02;46.40
73870;BME280;64924;42.140;24.762;2023-12-04T05:25:22;100372.28;;;6.93;47.07
73870;BME280;64924;42.140;24.762;2023-12-04T05:27:48;100378.22;;;6.96;46.18
73870;BME280;64924;42.140;24.762;2023-12-04T05:30:14;100376.06;;;7.00;47.42
73870;BME280;64924;42.140;24.762;2023-12-04T05:32:39;100391.72;;;6.96;46.54
73870;BME280;64924;42.140;24.762;2023-12-04T05:35:05;100335.72;;;6.63;46.68
73870;BME280;64924;42.140;24.762;2023-12-04T05:37:31;100388.78;;;6.90;47.61
73870;BME280;64924;42.140;24.762;2023-12-04T05:39:57;100383.69;;;6.87;46.93
73870;BME280;64924;42.140;24.762;2023-12-04T05:42:23;100388.63;;;6.91;46.21
73870;BME280;64924;42.140;24.762;2023-12-04T05:44:48;100382.63;;;6.97;46.69
73870;BME280;64924;42.140;24.762;2023-12-04T05:47:14;100389.63;;;7.08;46.41
73870;BME280;64924;42.140;24.762;2023-12-04T05:49:40;100389.16;;;7.13;46.30
73870;BME280;64924;42.140;24.762;2023-12-04T05:52:06;100388.47;;;7.11;46.26
73870;BME280;64924;42.140;24.762;2023-12-04T05:54:31;100406.91;;;7.15;45.96
73870;BME280;64924;42.140;24.762;2023-12-04T05:56:57;100405.13;;;7.06;46.12
73870;BME280;64924;42.140;24.762;2023-12-04T05:59:23;100422.38;;;7.05;46.18
73870;BME280;64924;42.140;24.762;2023-12-04T06:01:48;100411.72;;;7.03;45.88
73870;BME280;64924;42.140;24.762;2023-12-04T06:04:14;100426.75;;;7.06;45.92
73870;BME280;64924;42.140;24.762;2023-12-04T06:06:39;100383.06;;;6.75;44.83
73870;BME280;64924;42.140;24.762;2023-12-04T06:09:05;100433.84;;;7.07;44.11
73870;BME280;64924;42.140;24.762;2023-12-04T06:11:30;100422.00;;;7.00;44.09
73870;BME280;64924;42.140;24.762;2023-12-04T06:13:56;100426.13;;;7.12;43.34
73870;BME280;64924;42.140;24.762;2023-12-04T06:16:21;100417.25;;;7.20;42.58
73870;BME280;64924;42.140;24.762;2023-12-04T06:18:47;100427.59;;;7.24;42.60
73870;BME280;64924;42.140;24.762;2023-12-04T06:21:12;100432.00;;;7.25;42.81
73870;BME280;64924;42.140;24.762;2023-12-04T06:23:38;100437.78;;;7.30;42.90
73870;BME280;64924;42.140;24.762;2023-12-04T06:26:04;100440.19;;;7.33;43.27
73870;BME280;64924;42.140;24.762;2023-12-04T06:28:31;100446.22;;;7.27;43.19
73870;BME280;64924;42.140;24.762;2023-12-04T06:30:58;100450.78;;;7.27;43.14
73870;BME280;64924;42.140;24.762;2023-12-04T06:33:24;100456.63;;;7.22;43.18
73870;BME280;64924;42.140;24.762;2023-12-04T06:35:50;100449.00;;;7.18;42.91
73870;BME280;64924;42.140;24.762;2023-12-04T06:38:16;100453.63;;;7.08;42.24
73870;BME280;64924;42.140;24.762;2023-12-04T06:40:44;100457.84;;;7.10;42.84
73870;BME280;64924;42.140;24.762;2023-12-04T06:43:10;100463.50;;;7.17;42.88
73870;BME280;64924;42.140;24.762;2023-12-04T06:45:36;100464.03;;;7.20;42.34
73870;BME280;64924;42.140;24.762;2023-12-04T06:48:01;100457.78;;;7.20;42.00
73870;BME280;64924;42.140;24.762;2023-12-04T06:50:27;100459.50;;;7.21;42.05
73870;BME280;64924;42.140;24.762;2023-12-04T06:52:53;100455.25;;;7.18;42.47
73870;BME280;64924;42.140;24.762;2023-12-04T06:55:18;100466.44;;;7.23;42.14
73870;BME280;64924;42.140;24.762;2023-12-04T06:57:44;100468.53;;;7.29;41.89
73870;BME280;64924;42.140;24.762;2023-12-04T07:00:10;100452.94;;;7.23;42.10
73870;BME280;64924;42.140;24.762;2023-12-04T07:02:38;100456.88;;;7.29;42.08
73870;BME280;64924;42.140;24.762;2023-12-04T07:05:03;100481.88;;;7.31;42.29
73870;BME280;64924;42.140;24.762;2023-12-04T07:07:29;100478.72;;;7.35;42.40
73870;BME280;64924;42.140;24.762;2023-12-04T07:09:54;100473.88;;;7.39;42.44
73870;BME280;64924;42.140;24.762;2023-12-04T07:12:20;100436.78;;;7.14;42.08
73870;BME280;64924;42.140;24.762;2023-12-04T07:14:45;100483.53;;;7.42;41.63
73870;BME280;64924;42.140;24.762;2023-12-04T07:17:11;100486.97;;;7.52;41.88
73870;BME280;64924;42.140;24.762;2023-12-04T07:19:36;100476.53;;;7.57;41.83
73870;BME280;64924;42.140;24.762;2023-12-04T07:22:02;100477.28;;;7.67;41.64
73870;BME280;64924;42.140;24.762;2023-12-04T07:24:28;100490.66;;;7.68;41.61
73870;BME280;64924;42.140;24.762;2023-12-04T07:26:53;100494.91;;;7.71;41.54
73870;BME280;64924;42.140;24.762;2023-12-04T07:29:19;100470.13;;;7.58;41.50
73870;BME280;64924;42.140;24.762;2023-12-04T07:31:44;100495.53;;;7.65;41.69
73870;BME280;64924;42.140;24.762;2023-12-04T07:34:10;100477.00;;;7.70;41.46
73870;BME280;64924;42.140;24.762;2023-12-04T07:36:35;100497.16;;;7.76;41.49
73870;BME280;64924;42.140;24.762;2023-12-04T07:39:01;100502.25;;;7.79;41.22
73870;BME280;64924;42.140;24.762;2023-12-04T07:41:26;100493.78;;;7.82;41.70
73870;BME280;64924;42.140;24.762;2023-12-04T07:43:52;100493.31;;;7.86;41.55
73870;BME280;64924;42.140;24.762;2023-12-04T07:46:17;100488.91;;;7.85;41.14
73870;BME280;64924;42.140;24.762;2023-12-04T07:48:43;100450.72;;;7.62;41.50
73870;BME280;64924;42.140;24.762;2023-12-04T07:51:11;100448.09;;;7.53;41.66
73870;BME280;64924;42.140;24.762;2023-12-04T07:53:37;100493.47;;;7.85;41.02
73870;BME280;64924;42.140;24.762;2023-12-04T07:56:03;100499.19;;;7.82;40.71
73870;BME280;64924;42.140;24.762;2023-12-04T07:58:30;100445.59;;;7.33;40.27
73870;BME280;64924;42.140;24.762;2023-12-04T08:00:56;100486.41;;;7.66;40.91
73870;BME280;64924;42.140;24.762;2023-12-04T08:03:22;100501.00;;;7.73;41.31
73870;BME280;64924;42.140;24.762;2023-12-04T08:05:50;100501.41;;;7.78;41.09
73870;BME280;64924;42.140;24.762;2023-12-04T08:08:16;100485.47;;;7.75;41.91
73870;BME280;64924;42.140;24.762;2023-12-04T08:10:41;100502.88;;;7.72;40.71
73870;BME280;64924;42.140;24.762;2023-12-04T08:13:07;100473.50;;;7.78;41.05
73870;BME280;64924;42.140;24.762;2023-12-04T08:15:32;100501.56;;;8.02;40.47
73870;BME280;64924;42.140;24.762;2023-12-04T08:17:58;100500.31;;;8.15;40.25
73870;BME280;64924;42.140;24.762;2023-12-04T08:20:23;100504.03;;;8.22;40.10
73870;BME280;64924;42.140;24.762;2023-12-04T08:22:49;100504.41;;;8.27;40.13
73870;BME280;64924;42.140;24.762;2023-12-04T08:25:14;100502.97;;;8.32;40.37
73870;BME280;64924;42.140;24.762;2023-12-04T08:27:41;100494.19;;;8.38;40.17
73870;BME280;64924;42.140;24.762;2023-12-04T08:30:08;100497.75;;;8.39;39.96
73870;BME280;64924;42.140;24.762;2023-12-04T08:32:33;100492.50;;;8.37;39.51
73870;BME280;64924;42.140;24.762;2023-12-04T08:34:59;100479.19;;;8.26;39.26
73870;BME280;64924;42.140;24.762;2023-12-04T08:37:25;100497.06;;;8.37;40.28
73870;BME280;64924;42.140;24.762;2023-12-04T08:39:50;100495.47;;;8.52;40.09
73870;BME280;64924;42.140;24.762;2023-12-04T08:42:16;100512.41;;;8.62;39.46
73870;BME280;64924;42.140;24.762;2023-12-04T08:44:41;100451.72;;;8.39;39.59
73870;BME280;64924;42.140;24.762;2023-12-04T08:47:08;100504.66;;;8.67;39.53
73870;BME280;64924;42.140;24.762;2023-12-04T08:49:33;100469.72;;;8.48;39.81
73870;BME280;64924;42.140;24.762;2023-12-04T08:51:59;100514.16;;;8.71;39.85
73870;BME280;64924;42.140;24.762;2023-12-04T08:54:25;100504.66;;;8.67;39.10
73870;BME280;64924;42.140;24.762;2023-12-04T08:56:50;100518.28;;;8.84;39.39
73870;BME280;64924;42.140;24.762;2023-12-04T08:59:16;100523.84;;;8.82;39.53
73870;BME280;64924;42.140;24.762;2023-12-04T09:01:42;100501.13;;;8.75;39.54
73870;BME280;64924;42.140;24.762;2023-12-04T09:04:08;100506.09;;;8.88;39.91
73870;BME280;64924;42.140;24.762;2023-12-04T09:06:35;100489.31;;;8.84;39.67
73870;BME280;64924;42.140;24.762;2023-12-04T09:09:00;100492.56;;;9.04;39.48
73870;BME280;64924;42.140;24.762;2023-12-04T09:11:26;100504.81;;;9.16;39.67
73870;BME280;64924;42.140;24.762;2023-12-04T09:13:51;100503.47;;;9.20;39.80
73870;BME280;64924;42.140;24.762;2023-12-04T09:16:17;100498.41;;;9.25;39.92
73870;BME280;64924;42.140;24.762;2023-12-04T09:18:43;100499.94;;;9.28;39.98
73870;BME280;64924;42.140;24.762;2023-12-04T09:21:08;100499.06;;;9.35;40.08
73870;BME280;64924;42.140;24.762;2023-12-04T09:23:35;100487.22;;;9.45;40.14
73870;BME280;64924;42.140;24.762;2023-12-04T09:26:01;100492.97;;;9.42;39.97
73870;BME280;64924;42.140;24.762;2023-12-04T09:28:26;100477.75;;;9.49;40.35
73870;BME280;64924;42.140;24.762;2023-12-04T09:30:52;100468.94;;;9.63;39.66
73870;BME280;64924;42.140;24.762;2023-12-04T09:33:18;100465.69;;;9.76;39.62
73870;BME280;64924;42.140;24.762;2023-12-04T09:35:44;100472.47;;;9.88;39.17
73870;BME280;64924;42.140;24.762;2023-12-04T09:38:10;100427.88;;;9.74;39.41
73870;BME280;64924;42.140;24.762;2023-12-04T09:40:35;100475.47;;;10.17;38.97
73870;BME280;64924;42.140;24.762;2023-12-04T09:43:01;100450.72;;;10.20;38.80
73870;BME280;64924;42.140;24.762;2023-12-04T09:45:28;100455.59;;;10.33;38.60
73870;BME280;64924;42.140;24.762;2023-12-04T09:47:54;100468.88;;;10.20;38.72
73870;BME280;64924;42.140;24.762;2023-12-04T09:50:20;100460.19;;;10.16;38.74
73870;BME280;64924;42.140;24.762;2023-12-04T09:52:51;100468.88;;;10.20;39.07
73870;BME280;64924;42.140;24.762;2023-12-04T09:55:20;100471.56;;;10.12;39.11
73870;BME280;64924;42.140;24.762;2023-12-04T09:57:46;100460.69;;;10.12;38.76
73870;BME280;64924;42.140;24.762;2023-12-04T10:00:13;100465.81;;;10.23;39.43
73870;BME280;64924;42.140;24.762;2023-12-04T10:02:40;100464.97;;;10.22;38.96
73870;BME280;64924;42.140;24.762;2023-12-04T10:05:07;100454.59;;;10.10;39.12
73870;BME280;64924;42.140;24.762;2023-12-04T10:07:33;100470.09;;;10.01;39.66
73870;BME280;64924;42.140;24.762;2023-12-04T10:09:58;100452.78;;;10.02;39.97
73870;BME280;64924;42.140;24.762;2023-12-04T10:12:25;100453.59;;;10.27;39.21
73870;BME280;64924;42.140;24.762;2023-12-04T10:15:05;100410.47;;;10.24;39.17
73870;BME280;64924;42.140;24.762;2023-12-04T10:17:37;100453.16;;;10.46;39.45
73870;BME280;64924;42.140;24.762;2023-12-04T10:22:58;100468.69;;;10.77;38.94
73870;BME280;64924;42.140;24.762;2023-12-04T10:25:25;100475.84;;;10.69;39.13
73870;BME280;64924;42.140;24.762;2023-12-04T10:27:51;100447.19;;;10.51;38.75
73870;BME280;64924;42.140;24.762;2023-12-04T10:30:26;100461.91;;;10.73;38.91
73870;BME280;64924;42.140;24.762;2023-12-04T10:32:56;100452.03;;;10.71;39.45
73870;BME280;64924;42.140;24.762;2023-12-04T10:35:29;100447.81;;;10.69;39.50
73870;BME280;64924;42.140;24.762;2023-12-04T10:37:58;100448.88;;;10.91;39.34
73870;BME280;64924;42.140;24.762;2023-12-04T10:40:29;100457.13;;;11.05;38.73
73870;BME280;64924;42.140;24.762;2023-12-04T10:43:17;100451.59;;;10.91;38.66
73870;BME280;64924;42.140;24.762;2023-12-04T10:45:44;100407.63;;;10.56;38.98
73870;BME280;64924;42.140;24.762;2023-12-04T10:48:12;100439.72;;;10.84;38.87
73870;BME280;64924;42.140;24.762;2023-12-04T10:50:39;100449.22;;;10.88;39.17
73870;BME280;64924;42.140;24.762;2023-12-04T10:53:06;100432.75;;;10.89;39.35
73870;BME280;64924;42.140;24.762;2023-12-04T10:55:33;100436.97;;;10.92;38.93
73870;BME280;64924;42.140;24.762;2023-12-04T10:58:01;100404.50;;;10.67;38.57
73870;BME280;64924;42.140;24.762;2023-12-04T11:00:28;100443.47;;;10.83;38.66
73870;BME280;64924;42.140;24.762;2023-12-04T11:02:55;100448.25;;;10.81;39.32
73870;BME280;64924;42.140;24.762;2023-12-04T11:05:23;100452.78;;;10.88;38.84
73870;BME280;64924;42.140;24.762;2023-12-04T11:07:54;100461.56;;;10.98;38.67
73870;BME280;64924;42.140;24.762;2023-12-04T11:10:22;100452.56;;;10.98;38.67
73870;BME280;64924;42.140;24.762;2023-12-04T11:12:54;100446.59;;;11.02;38.63
73870;BME280;64924;42.140;24.762;2023-12-04T11:15:23;100446.25;;;11.05;38.78
73870;BME280;64924;42.140;24.762;2023-12-04T11:17:54;100456.16;;;11.21;38.40
73870;BME280;64924;42.140;24.762;2023-12-04T11:20:24;100446.84;;;11.16;38.75
73870;BME280;64924;42.140;24.762;2023-12-04T11:22:53;100457.63;;;11.32;38.17
73870;BME280;64924;42.140;24.762;2023-12-04T11:25:21;100453.31;;;11.37;38.33
73870;BME280;64924;42.140;24.762;2023-12-04T11:27:51;100446.50;;;11.42;38.22
73870;BME280;64924;42.140;24.762;2023-12-04T11:30:18;100414.94;;;11.32;37.94
73870;BME280;64924;42.140;24.762;2023-12-04T11:32:45;100433.94;;;11.55;37.66
73870;BME280;64924;42.140;24.762;2023-12-04T11:35:15;100451.34;;;11.69;37.56
73870;BME280;64924;42.140;24.762;2023-12-04T11:37:46;100447.97;;;11.67;37.54
73870;BME280;64924;42.140;24.762;2023-12-04T11:40:15;100442.97;;;11.56;37.50
73870;BME280;64924;42.140;24.762;2023-12-04T11:42:41;100455.34;;;11.58;37.38
73870;BME280;64924;42.140;24.762;2023-12-04T11:45:08;100447.19;;;11.58;37.91
73870;BME280;64924;42.140;24.762;2023-12-04T11:47:59;100450.13;;;11.80;37.82
73870;BME280;64924;42.140;24.762;2023-12-04T11:50:25;100444.75;;;11.49;37.96
73870;BME280;64924;42.140;24.762;2023-12-04T11:52:51;100456.31;;;11.65;37.70
73870;BME280;64924;42.140;24.762;2023-12-04T11:55:18;100447.91;;;11.75;37.69
73870;BME280;64924;42.140;24.762;2023-12-04T11:57:45;100451.47;;;11.76;37.77
73870;BME280;64924;42.140;24.762;2023-12-04T12:02:41;100461.38;;;11.77;37.37
73870;BME280;64924;42.140;24.762;2023-12-04T12:05:12;100462.25;;;11.69;37.29
73870;BME280;64924;42.140;24.762;2023-12-04T12:07:37;100452.50;;;11.75;37.65
73870;BME280;64924;42.140;24.762;2023-12-04T12:10:03;100433.88;;;11.63;37.60
73870;BME280;64924;42.140;24.762;2023-12-04T12:12:30;100463.94;;;11.70;37.84
73870;BME280;64924;42.140;24.762;2023-12-04T12:14:57;100468.34;;;11.71;38.09
73870;BME280;64924;42.140;24.762;2023-12-04T12:17:23;100458.78;;;11.75;37.41
73870;BME280;64924;42.140;24.762;2023-12-04T12:19:48;100411.50;;;11.53;37.74
73870;BME280;64924;42.140;24.762;2023-12-04T12:22:14;100412.19;;;11.55;37.39
73870;BME280;64924;42.140;24.762;2023-12-04T12:24:39;100445.88;;;11.77;37.26
73870;BME280;64924;42.140;24.762;2023-12-04T12:27:05;100459.59;;;11.84;37.17
73870;BME280;64924;42.140;24.762;2023-12-04T12:29:30;100454.56;;;11.72;36.87
73870;BME280;64924;42.140;24.762;2023-12-04T12:31:56;100451.72;;;11.66;37.50
73870;BME280;64924;42.140;24.762;2023-12-04T12:34:21;100451.41;;;11.61;37.37
73870;BME280;64924;42.140;24.762;2023-12-04T12:36:47;100438.94;;;11.29;37.25
73870;BME280;64924;42.140;24.762;2023-12-04T12:39:13;100409.47;;;10.87;37.44
73870;BME280;64924;42.140;24.762;2023-12-04T12:41:47;100447.84;;;10.92;37.69
73870;BME280;64924;42.140;24.762;2023-12-04T12:44:13;100445.09;;;10.69;37.99
73870;BME280;64924;42.140;24.762;2023-12-04T12:46:40;100450.09;;;10.49;38.73
73870;BME280;64924;42.140;24.762;2023-12-04T12:49:06;100461.66;;;10.43;39.42